createdAt,value
2022-12-03T00:01:25.232Z,11.87
2022-12-03T00:03:54.853Z,11.97
2022-12-03T00:06:22.566Z,11.53
2022-12-03T00:08:50.307Z,12.97
2022-12-03T00:11:17.926Z,12.77
2022-12-03T00:13:45.712Z,10.57
2022-12-03T00:16:13.399Z,11.40
2022-12-03T00:18:41.167Z,11.80
2022-12-03T00:21:10.093Z,11.73
2022-12-03T00:23:42.010Z,12.03
2022-12-03T00:26:10.122Z,11.80
2022-12-03T00:28:37.722Z,11.43
2022-12-03T00:31:05.732Z,11.70
2022-12-03T00:33:33.321Z,11.23
2022-12-03T00:36:01.085Z,12.10
2022-12-03T00:38:30.042Z,11.50
2022-12-03T00:40:57.718Z,12.10
2022-12-03T00:43:25.286Z,11.47
2022-12-03T00:45:53.084Z,11.47
2022-12-03T00:48:20.726Z,11.47
2022-12-03T00:50:49.513Z,10.80
2022-12-03T00:53:17.194Z,12.07
2022-12-03T00:55:46.291Z,13.03
2022-12-03T00:58:13.898Z,11.60
2022-12-03T01:00:41.661Z,11.87
2022-12-03T01:03:09.241Z,11.77
2022-12-03T01:05:36.981Z,12.83
2022-12-03T01:08:04.678Z,11.37
2022-12-03T01:10:32.423Z,11.47
2022-12-03T01:13:01.352Z,11.53
2022-12-03T01:15:29.089Z,11.40
2022-12-03T01:17:56.676Z,12.17
2022-12-03T01:20:24.404Z,11.73
2022-12-03T01:22:52.193Z,10.87
2022-12-03T01:25:19.983Z,12.30
2022-12-03T01:27:47.588Z,11.97
2022-12-03T01:30:18.553Z,12.33
2022-12-03T01:32:45.156Z,12.27
2022-12-03T01:35:12.916Z,11.87
2022-12-03T01:37:40.906Z,12.33
2022-12-03T01:40:09.587Z,11.53
2022-12-03T01:42:39.785Z,12.03
2022-12-03T01:45:11.834Z,12.20
2022-12-03T01:47:41.281Z,12.50
2022-12-03T01:50:12.840Z,12.23
2022-12-03T01:52:40.460Z,11.77
2022-12-03T01:55:12.411Z,11.83
2022-12-03T01:57:41.524Z,11.00
2022-12-03T02:00:13.649Z,11.23
2022-12-03T02:02:43.420Z,10.80
2022-12-03T02:05:18.730Z,12.23
2022-12-03T02:07:48.060Z,11.10
2022-12-03T02:10:17.685Z,11.37
2022-12-03T02:12:47.551Z,12.30
2022-12-03T02:15:15.275Z,11.87
2022-12-03T02:17:44.294Z,12.50
2022-12-03T02:20:12.748Z,11.50
2022-12-03T02:22:53.555Z,11.13
2022-12-03T02:25:23.548Z,11.93
2022-12-03T02:27:51.489Z,11.63
2022-12-03T02:30:21.529Z,12.70
2022-12-03T02:32:49.339Z,11.23
2022-12-03T02:35:17.287Z,11.60
2022-12-03T02:37:45.127Z,12.37
2022-12-03T02:40:14.621Z,11.93
2022-12-03T02:42:44.820Z,12.50
2022-12-03T02:45:17.678Z,12.73
2022-12-03T02:47:46.158Z,11.37
2022-12-03T02:50:16.907Z,12.50
2022-12-03T02:52:45.269Z,12.43
2022-12-03T02:55:12.872Z,11.33
2022-12-03T02:57:40.590Z,12.13
2022-12-03T03:00:10.950Z,12.10
2022-12-03T03:02:38.926Z,11.03
2022-12-03T03:05:07.774Z,13.13
2022-12-03T03:07:35.639Z,12.43
2022-12-03T03:10:03.650Z,13.03
2022-12-03T03:12:34.816Z,14.00
2022-12-03T03:15:07.670Z,11.13
2022-12-03T03:17:37.684Z,12.17
2022-12-03T03:20:06.329Z,11.20
2022-12-03T03:22:34.417Z,11.80
2022-12-03T03:25:02.100Z,11.17
2022-12-03T03:27:29.727Z,11.97
2022-12-03T03:29:57.463Z,12.63
2022-12-03T03:32:25.096Z,11.50
2022-12-03T03:34:54.448Z,11.97
2022-12-03T03:37:22.283Z,11.60
2022-12-03T03:39:50.015Z,11.27
2022-12-03T03:42:17.659Z,11.20
2022-12-03T03:44:45.366Z,11.00
2022-12-03T03:47:13.096Z,11.70
2022-12-03T03:49:40.883Z,11.50
2022-12-03T03:52:11.701Z,12.30
2022-12-03T03:54:39.503Z,12.27
2022-12-03T03:57:07.184Z,12.10
2022-12-03T03:59:34.899Z,12.80
2022-12-03T04:02:02.542Z,12.63
2022-12-03T04:04:31.758Z,12.93
2022-12-03T04:06:59.562Z,12.43
2022-12-03T04:09:28.694Z,12.70
2022-12-03T04:12:13.749Z,11.67
2022-12-03T04:14:41.343Z,12.00
2022-12-03T04:17:10.052Z,12.87
2022-12-03T04:19:37.640Z,12.63
2022-12-03T04:22:19.293Z,12.53
2022-12-03T04:24:48.250Z,11.60
2022-12-03T04:27:33.422Z,13.57
2022-12-03T04:30:01.225Z,12.47
2022-12-03T04:32:46.690Z,11.33
2022-12-03T04:35:46.957Z,12.53
2022-12-03T04:38:15.819Z,12.10
2022-12-03T04:41:04.120Z,12.10
2022-12-03T04:43:33.068Z,14.73
2022-12-03T04:46:00.804Z,12.83
2022-12-03T04:48:28.687Z,12.07
2022-12-03T04:50:56.277Z,13.00
2022-12-03T04:53:25.020Z,14.10
2022-12-03T04:55:54.007Z,12.00
2022-12-03T04:58:21.829Z,12.37
2022-12-03T05:00:49.472Z,11.73
2022-12-03T05:03:17.232Z,13.37
2022-12-03T05:05:44.868Z,13.43
2022-12-03T05:08:13.622Z,13.27
2022-12-03T05:10:41.295Z,14.00
2022-12-03T05:13:11.401Z,12.27
2022-12-03T05:15:39.006Z,12.83
2022-12-03T05:18:06.683Z,12.33
2022-12-03T05:20:42.095Z,13.80
2022-12-03T05:23:09.846Z,12.37
2022-12-03T05:25:37.545Z,12.53
2022-12-03T05:28:05.882Z,13.30
2022-12-03T05:30:35.117Z,14.27
2022-12-03T05:33:02.931Z,12.20
2022-12-03T05:35:30.597Z,12.47
2022-12-03T05:37:58.360Z,14.00
2022-12-03T05:40:26.115Z,12.70
2022-12-03T05:42:56.985Z,12.47
2022-12-03T05:45:26.204Z,13.10
2022-12-03T05:47:55.493Z,13.20
2022-12-03T05:50:23.892Z,12.77
2022-12-03T05:52:51.640Z,13.83
2022-12-03T05:55:19.687Z,13.57
2022-12-03T05:57:47.410Z,14.30
2022-12-03T06:00:16.898Z,13.17
2022-12-03T06:02:44.599Z,14.60
2022-12-03T06:05:14.232Z,12.70
2022-12-03T06:07:41.964Z,13.27
2022-12-03T06:10:11.217Z,13.00
2022-12-03T06:12:38.960Z,13.20
2022-12-03T06:15:07.990Z,12.87
2022-12-03T06:17:35.738Z,13.03
2022-12-03T06:20:03.598Z,12.27
2022-12-03T06:22:32.937Z,12.77
2022-12-03T06:25:06.206Z,13.77
2022-12-03T06:27:34.982Z,13.27
2022-12-03T06:30:02.941Z,13.07
2022-12-03T06:32:30.834Z,13.93
2022-12-03T06:34:58.623Z,12.93
2022-12-03T06:37:26.272Z,13.73
2022-12-03T06:39:55.431Z,12.60
2022-12-03T06:42:23.223Z,13.87
2022-12-03T06:44:51.417Z,13.57
2022-12-03T06:47:19.384Z,13.07
2022-12-03T06:49:47.132Z,13.50
2022-12-03T06:52:14.823Z,13.47
2022-12-03T06:54:42.518Z,13.00
2022-12-03T06:57:11.533Z,13.53
2022-12-03T06:59:39.257Z,13.43
2022-12-03T07:02:07.037Z,14.30
2022-12-03T07:04:34.941Z,10.17
2022-12-03T07:07:02.762Z,13.53
2022-12-03T07:09:31.127Z,13.60
2022-12-03T07:11:58.822Z,13.60
2022-12-03T07:14:27.870Z,14.93
2022-12-03T07:16:55.723Z,14.53
2022-12-03T07:19:27.579Z,12.93
2022-12-03T07:21:58.497Z,12.80
2022-12-03T07:24:38.422Z,12.73
2022-12-03T07:27:06.192Z,14.03
2022-12-03T07:29:35.327Z,12.20
2022-12-03T07:32:02.978Z,13.17
2022-12-03T07:34:30.804Z,12.87
2022-12-03T07:36:58.494Z,11.70
2022-12-03T07:39:26.225Z,12.73
2022-12-03T07:41:57.069Z,12.50
2022-12-03T07:44:24.884Z,12.23
2022-12-03T07:46:54.123Z,12.10
2022-12-03T07:49:21.881Z,11.93
2022-12-03T07:51:54.214Z,12.00
2022-12-03T07:54:22.173Z,12.30
2022-12-03T07:56:50.171Z,13.70
2022-12-03T07:59:18.019Z,13.33
2022-12-03T08:01:45.816Z,12.20
2022-12-03T08:04:18.222Z,13.03
2022-12-03T08:06:46.166Z,12.83
2022-12-03T08:09:16.208Z,15.00
2022-12-03T08:11:45.124Z,13.47
2022-12-03T08:14:13.646Z,14.00
2022-12-03T08:16:42.080Z,12.73
2022-12-03T08:19:10.572Z,12.93
2022-12-03T08:21:39.826Z,13.63
2022-12-03T08:24:14.253Z,13.60
2022-12-03T08:26:41.933Z,14.13
2022-12-03T08:29:10.393Z,13.63
2022-12-03T08:31:38.427Z,12.63
2022-12-03T08:34:19.793Z,13.80
2022-12-03T08:36:49.272Z,11.73
2022-12-03T08:39:30.065Z,14.30
2022-12-03T08:42:16.922Z,12.93
2022-12-03T08:44:44.541Z,13.40
2022-12-03T08:47:14.840Z,12.97
2022-12-03T08:49:42.617Z,13.27
2022-12-03T08:52:16.217Z,13.17
2022-12-03T08:54:43.881Z,12.13
2022-12-03T08:57:26.461Z,13.00
2022-12-03T08:59:55.336Z,13.47
2022-12-03T09:02:27.265Z,14.53
2022-12-03T09:04:55.152Z,13.93
2022-12-03T09:07:24.339Z,13.27
2022-12-03T09:09:52.084Z,12.37
2022-12-03T09:12:19.813Z,12.40
2022-12-03T09:14:47.583Z,12.17
2022-12-03T09:17:15.212Z,12.87
2022-12-03T09:19:46.306Z,13.33
2022-12-03T09:22:15.263Z,17.33
2022-12-03T09:24:44.684Z,12.27
2022-12-03T09:27:12.517Z,13.67
2022-12-03T09:29:40.494Z,12.77
2022-12-03T09:32:10.532Z,13.53
2022-12-03T09:34:40.309Z,14.00
2022-12-03T09:37:08.146Z,12.77
2022-12-03T09:39:35.966Z,13.57
2022-12-03T09:42:05.557Z,20.47
2022-12-03T09:44:34.139Z,14.37
2022-12-03T09:47:01.901Z,13.70
2022-12-03T09:49:29.770Z,13.60
2022-12-03T09:51:57.909Z,13.90
2022-12-03T09:54:26.791Z,13.87
2022-12-03T09:56:54.824Z,13.80
2022-12-03T09:59:24.106Z,13.57
2022-12-03T10:01:52.634Z,12.10
2022-12-03T10:04:20.391Z,13.27
2022-12-03T10:06:48.222Z,13.30
2022-12-03T10:09:17.712Z,13.13
2022-12-03T10:11:45.406Z,13.07
2022-12-03T10:14:13.391Z,13.53
2022-12-03T10:16:42.711Z,12.40
2022-12-03T10:19:10.746Z,12.23
2022-12-03T10:21:39.158Z,12.43
2022-12-03T10:24:25.465Z,13.03
2022-12-03T10:26:54.032Z,13.23
2022-12-03T10:29:24.710Z,12.77
2022-12-03T10:31:59.967Z,12.90
2022-12-03T10:34:30.670Z,11.47
2022-12-03T10:37:12.076Z,13.40
2022-12-03T10:40:00.960Z,12.50
2022-12-03T10:42:29.671Z,12.93
2022-12-03T10:45:20.959Z,13.00
2022-12-03T10:48:13.143Z,10.37
2022-12-03T10:50:48.268Z,12.37
2022-12-03T10:53:16.283Z,12.67
2022-12-03T10:55:44.832Z,12.27
2022-12-03T10:58:21.012Z,12.47
2022-12-03T11:00:49.342Z,13.07
2022-12-03T11:03:22.002Z,11.90
2022-12-03T11:05:49.860Z,12.60
2022-12-03T11:08:19.286Z,12.83
2022-12-03T11:10:47.193Z,13.03
2022-12-03T11:13:51.777Z,12.50
2022-12-03T11:17:06.956Z,12.47
2022-12-03T11:19:48.899Z,12.40
2022-12-03T11:22:45.277Z,12.47
2022-12-03T11:25:37.002Z,12.73
2022-12-03T11:28:32.137Z,15.23
2022-12-03T11:31:02.157Z,12.33
2022-12-03T11:33:30.264Z,11.70
2022-12-03T11:36:31.703Z,12.50
2022-12-03T11:39:04.358Z,13.27
2022-12-03T11:41:33.398Z,12.50
2022-12-03T11:44:32.056Z,12.77
2022-12-03T11:47:02.138Z,13.07
2022-12-03T11:49:35.769Z,12.97
2022-12-03T11:52:13.187Z,13.57
2022-12-03T11:54:40.789Z,13.53
2022-12-03T11:57:26.246Z,12.77
2022-12-03T12:00:01.165Z,11.10
2022-12-03T12:02:29.038Z,12.73
2022-12-03T12:04:57.200Z,13.07
2022-12-03T12:07:38.622Z,13.60
2022-12-03T12:10:07.307Z,13.37
2022-12-03T12:12:38.925Z,12.87
2022-12-03T12:15:34.251Z,13.07
2022-12-03T12:18:35.292Z,11.43
2022-12-03T12:21:41.017Z,12.97
2022-12-03T12:24:32.647Z,13.27
2022-12-03T12:27:01.513Z,16.70
2022-12-03T12:29:29.278Z,19.83
2022-12-03T12:32:03.610Z,13.23
2022-12-03T12:34:31.355Z,13.23
2022-12-03T12:36:59.519Z,13.47
2022-12-03T12:39:27.408Z,14.23
2022-12-03T12:41:56.519Z,13.60
2022-12-03T12:44:26.357Z,14.83
2022-12-03T12:46:54.775Z,14.37
2022-12-03T12:49:26.789Z,14.50
2022-12-03T12:51:54.950Z,14.63
2022-12-03T12:54:22.824Z,12.93
2022-12-03T12:56:50.899Z,13.53
2022-12-03T12:59:20.991Z,15.23
2022-12-03T13:01:49.480Z,13.43
2022-12-03T13:04:18.542Z,16.43
2022-12-03T13:06:46.434Z,15.00
2022-12-03T13:09:15.959Z,14.50
2022-12-03T13:11:45.861Z,14.90
2022-12-03T13:14:16.499Z,13.67
2022-12-03T13:16:46.213Z,12.90
2022-12-03T13:19:23.713Z,14.00
2022-12-03T13:21:51.954Z,14.87
2022-12-03T13:24:33.674Z,14.30
2022-12-03T13:27:06.191Z,14.77
2022-12-03T13:29:33.852Z,14.17
2022-12-03T13:32:03.588Z,14.20
2022-12-03T13:34:33.430Z,15.73
2022-12-03T13:37:01.531Z,15.77
2022-12-03T13:39:32.096Z,13.97
2022-12-03T13:42:19.798Z,14.80
2022-12-03T13:44:48.727Z,14.30
2022-12-03T13:47:20.084Z,15.07
2022-12-03T13:49:52.845Z,14.53
2022-12-03T13:52:21.952Z,14.87
2022-12-03T13:54:51.044Z,15.73
2022-12-03T13:57:18.956Z,15.13
2022-12-03T13:59:48.515Z,14.43
2022-12-03T14:02:18.705Z,13.47
2022-12-03T14:04:47.169Z,14.50
2022-12-03T14:07:20.641Z,14.40
2022-12-03T14:09:49.159Z,14.37
2022-12-03T14:12:33.684Z,13.50
2022-12-03T14:15:01.665Z,14.50
2022-12-03T14:17:30.984Z,14.30
2022-12-03T14:20:00.726Z,16.70
2022-12-03T14:22:28.838Z,16.60
2022-12-03T14:24:57.032Z,15.67
2022-12-03T14:27:25.604Z,15.27
2022-12-03T14:29:54.071Z,14.83
2022-12-03T14:32:23.522Z,14.10
2022-12-03T14:34:53.340Z,15.00
2022-12-03T14:37:21.904Z,14.40
2022-12-03T14:39:53.293Z,14.93
2022-12-03T14:42:21.161Z,14.07
2022-12-03T14:44:50.219Z,15.53
2022-12-03T14:47:22.457Z,15.10
2022-12-03T14:49:52.612Z,15.97
2022-12-03T14:52:20.998Z,16.17
2022-12-03T14:54:49.096Z,15.60
2022-12-03T14:57:17.302Z,16.27
2022-12-03T14:59:46.979Z,13.80
2022-12-03T15:02:15.046Z,15.17
2022-12-03T15:04:45.509Z,15.13
2022-12-03T15:07:14.900Z,15.50
2022-12-03T15:09:45.569Z,15.10
2022-12-03T15:12:13.376Z,15.37
2022-12-03T15:14:41.453Z,16.70
2022-12-03T15:17:10.205Z,17.23
2022-12-03T15:19:37.933Z,16.20
2022-12-03T15:22:05.714Z,14.40
2022-12-03T15:24:36.217Z,14.00
2022-12-03T15:27:04.316Z,15.40
2022-12-03T15:29:33.044Z,15.73
2022-12-03T15:32:03.165Z,14.60
2022-12-03T15:34:31.368Z,15.87
2022-12-03T15:36:59.856Z,16.27
2022-12-03T15:39:30.490Z,14.50
2022-12-03T15:41:59.881Z,15.97
2022-12-03T15:44:29.815Z,14.80
2022-12-03T15:46:58.541Z,16.17
2022-12-03T15:49:26.417Z,15.33
2022-12-03T15:51:55.444Z,14.83
2022-12-03T15:54:24.004Z,16.33
2022-12-03T15:56:57.234Z,15.43
2022-12-03T15:59:27.382Z,16.43
2022-12-03T16:01:58.752Z,17.07
2022-12-03T16:04:27.347Z,16.17
2022-12-03T16:06:59.692Z,14.30
2022-12-03T16:09:30.370Z,17.17
2022-12-03T16:11:58.151Z,17.00
2022-12-03T16:14:27.262Z,16.10
2022-12-03T16:16:55.234Z,17.30
2022-12-03T16:19:24.271Z,15.27
2022-12-03T16:21:55.406Z,15.77
2022-12-03T16:24:23.289Z,16.17
2022-12-03T16:26:51.261Z,16.00
2022-12-03T16:29:19.083Z,16.13
2022-12-03T16:31:48.448Z,15.90
2022-12-03T16:34:16.299Z,15.80
2022-12-03T16:36:45.729Z,15.40
2022-12-03T16:39:13.777Z,14.30
2022-12-03T16:41:41.551Z,14.47
2022-12-03T16:44:09.894Z,15.77
2022-12-03T16:46:37.862Z,15.33
2022-12-03T16:49:07.921Z,15.10
2022-12-03T16:51:37.795Z,11.33
2022-12-03T16:54:05.803Z,13.60
2022-12-03T16:56:33.503Z,14.50
2022-12-03T16:59:01.322Z,14.97
2022-12-03T17:01:29.231Z,15.73
2022-12-03T17:03:57.100Z,15.63
2022-12-03T17:06:26.437Z,16.83
2022-12-03T17:08:55.043Z,16.53
2022-12-03T17:11:22.825Z,16.17
2022-12-03T17:13:50.560Z,15.43
2022-12-03T17:16:18.496Z,16.37
2022-12-03T17:18:46.292Z,16.93
2022-12-03T17:21:13.983Z,16.20
2022-12-03T17:23:44.660Z,16.03
2022-12-03T17:26:13.212Z,16.27
2022-12-03T17:28:41.964Z,17.57
2022-12-03T17:31:09.834Z,16.00
2022-12-03T17:33:37.668Z,16.60
2022-12-03T17:36:05.969Z,17.40
2022-12-03T17:38:38.877Z,16.27
2022-12-03T17:41:08.373Z,16.73
2022-12-03T17:43:36.174Z,17.07
2022-12-03T17:46:05.122Z,17.77
2022-12-03T17:48:33.028Z,17.40
2022-12-03T17:51:01.536Z,16.80
2022-12-03T17:53:29.188Z,16.83
2022-12-03T17:55:56.862Z,16.63
2022-12-03T17:58:35.176Z,25.30
2022-12-03T18:01:03.450Z,22.40
2022-12-03T18:03:31.490Z,16.77
2022-12-03T18:05:59.513Z,15.87
2022-12-03T18:08:27.279Z,16.10
2022-12-03T18:10:54.957Z,14.00
2022-12-03T18:13:22.982Z,40.87
2022-12-03T18:15:52.078Z,22.90
2022-12-03T18:18:19.886Z,15.73
2022-12-03T18:20:47.589Z,17.97
2022-12-03T18:23:15.396Z,13.53
2022-12-03T18:25:43.084Z,15.70
2022-12-03T18:28:10.671Z,15.13
2022-12-03T18:30:38.428Z,15.23
2022-12-03T18:33:07.435Z,15.03
2022-12-03T18:35:35.164Z,15.00
2022-12-03T18:38:02.859Z,15.33
2022-12-03T18:40:30.619Z,15.77
2022-12-03T18:42:58.411Z,15.33
2022-12-03T18:45:26.181Z,15.43
2022-12-03T18:47:54.674Z,15.70
2022-12-03T18:50:23.828Z,15.50
2022-12-03T18:52:51.528Z,15.20
2022-12-03T18:55:51.592Z,15.40
2022-12-03T18:58:19.264Z,15.30
2022-12-03T19:00:47.162Z,15.67
2022-12-03T19:03:14.932Z,17.37
2022-12-03T19:05:44.009Z,15.77
2022-12-03T19:08:14.916Z,16.90
2022-12-03T19:10:42.981Z,16.90
2022-12-03T19:13:10.721Z,16.60
2022-12-03T19:15:38.393Z,15.70
2022-12-03T19:18:07.327Z,17.63
2022-12-03T19:20:35.478Z,16.37
2022-12-03T19:23:04.679Z,16.17
2022-12-03T19:25:32.481Z,16.27
2022-12-03T19:28:00.103Z,15.93
2022-12-03T19:30:27.890Z,16.77
2022-12-03T19:32:55.508Z,16.50
2022-12-03T19:35:24.222Z,17.00
2022-12-03T19:37:51.974Z,13.40
2022-12-03T19:40:22.991Z,16.57
2022-12-03T19:42:50.625Z,15.93
2022-12-03T19:45:19.246Z,17.30
2022-12-03T19:47:47.842Z,16.17
2022-12-03T19:50:22.534Z,16.97
2022-12-03T19:52:51.699Z,16.53
2022-12-03T19:55:21.488Z,24.57
2022-12-03T19:57:51.731Z,15.83
2022-12-03T20:00:20.446Z,16.73
2022-12-03T20:02:50.151Z,16.80
2022-12-03T20:05:18.937Z,16.63
2022-12-03T20:07:47.286Z,17.07
2022-12-03T20:10:15.938Z,15.73
2022-12-03T20:12:44.433Z,15.17
2022-12-03T20:15:14.616Z,16.27
2022-12-03T20:17:43.126Z,15.77
2022-12-03T20:20:12.049Z,23.83
2022-12-03T20:22:40.624Z,19.67
2022-12-03T20:25:09.485Z,16.30
2022-12-03T20:27:37.628Z,17.70
2022-12-03T20:30:08.962Z,15.63
2022-12-03T20:32:42.141Z,17.87
2022-12-03T20:35:13.175Z,15.73
2022-12-03T20:37:41.197Z,15.40
2022-12-03T20:40:11.349Z,18.87
2022-12-03T20:42:40.172Z,17.87
2022-12-03T20:45:09.475Z,16.83
2022-12-03T20:47:39.484Z,16.00
2022-12-03T20:50:08.775Z,16.13
2022-12-03T20:52:37.083Z,16.20
2022-12-03T20:55:07.182Z,16.00
2022-12-03T20:57:38.078Z,17.23
2022-12-03T21:00:09.682Z,17.37
2022-12-03T21:02:40.680Z,17.57
2022-12-03T21:05:13.144Z,15.63
2022-12-03T21:07:41.409Z,16.47
2022-12-03T21:10:31.604Z,17.13
2022-12-03T21:13:01.897Z,16.97
2022-12-03T21:15:30.655Z,16.40
2022-12-03T21:18:01.095Z,15.67
2022-12-03T21:20:29.932Z,16.53
2022-12-03T21:22:58.095Z,16.87
2022-12-03T21:25:26.567Z,16.40
2022-12-03T21:27:54.990Z,17.20
2022-12-03T21:30:22.938Z,20.13
2022-12-03T21:32:50.743Z,18.83
2022-12-03T21:35:20.012Z,17.20
2022-12-03T21:37:47.838Z,29.13
2022-12-03T21:40:16.037Z,17.57
2022-12-03T21:42:44.778Z,18.47
2022-12-03T21:45:12.529Z,16.73
2022-12-03T21:47:42.297Z,15.93
2022-12-03T21:50:11.066Z,16.53
2022-12-03T21:52:41.579Z,16.03
2022-12-03T21:55:10.299Z,15.13
2022-12-03T21:57:38.054Z,16.27
2022-12-03T22:00:07.580Z,16.90
2022-12-03T22:02:36.603Z,16.40
2022-12-03T22:05:04.681Z,16.70
2022-12-03T22:07:33.737Z,17.77
2022-12-03T22:10:02.853Z,17.37
2022-12-03T22:12:30.531Z,17.97
2022-12-03T22:14:59.291Z,16.97
2022-12-03T22:17:27.164Z,17.67
2022-12-03T22:19:55.118Z,16.43
2022-12-03T22:22:23.256Z,16.40
2022-12-03T22:24:52.251Z,15.73
2022-12-03T22:27:21.386Z,15.07
2022-12-03T22:29:49.014Z,16.23
2022-12-03T22:32:16.755Z,17.20
2022-12-03T22:34:44.370Z,16.43
2022-12-03T22:37:12.078Z,15.27
2022-12-03T22:39:39.771Z,15.53
2022-12-03T22:42:07.836Z,15.90
2022-12-03T22:44:36.871Z,17.10
2022-12-03T22:47:05.143Z,15.37
2022-12-03T22:49:32.841Z,16.97
2022-12-03T22:52:00.593Z,17.80
2022-12-03T22:54:28.513Z,16.23
2022-12-03T22:56:56.172Z,14.37
2022-12-03T22:59:23.887Z,16.80
2022-12-03T23:01:52.834Z,15.57
2022-12-03T23:04:20.594Z,16.27
2022-12-03T23:06:48.327Z,16.17
2022-12-03T23:09:16.123Z,16.33
2022-12-03T23:11:44.209Z,17.33
2022-12-03T23:14:11.946Z,17.43
2022-12-03T23:16:40.420Z,17.53
2022-12-03T23:19:09.601Z,17.60
2022-12-03T23:21:37.232Z,18.87
2022-12-03T23:24:05.503Z,17.33
2022-12-03T23:26:35.170Z,16.03
2022-12-03T23:29:02.827Z,19.00
2022-12-03T23:31:46.761Z,18.50
2022-12-03T23:34:15.880Z,18.67
2022-12-03T23:36:43.696Z,19.07
2022-12-03T23:39:11.384Z,16.63
2022-12-03T23:41:39.224Z,16.13
2022-12-03T23:44:10.005Z,17.97
2022-12-03T23:46:39.879Z,16.70
2022-12-03T23:49:07.789Z,17.60
2022-12-03T23:51:36.980Z,17.23
2022-12-03T23:54:04.726Z,17.27
2022-12-03T23:56:32.611Z,17.43
2022-12-03T23:59:00.274Z,17.53
